Spring Meeting - Friuli Venezia Giulia Trophy 2019 - Class 1

Task 1

2019-04-25 to 2019-05-01, FAI Category 2 event

2019-04-27 Task 1  - Stopped at 14:50  (scored back by 15 min.)

Race to Goal 58.2 km

No Leg Dist. Id Radius Open Close Coordinates Altitude
1 0.0 km D01 400 m 11:50 15:00 Lat: 46.23083 Lon: 12.80694 980 m
2 SS 2.4 km M03 36000 m 13:00 17:00 Lat: 46.01028 Lon: 12.41861 960 m
3 20.4 km M03 18000 m 13:00 17:00 Lat: 46.01028 Lon: 12.41861 960 m
4 29.3 km B23 7000 m 13:00 17:00 Lat: 46.22083 Lon: 12.65083 1990 m
5 41.9 km A01 2000 m 13:00 17:00 Lat: 46.19639 Lon: 12.85611 230 m
6 47.9 km B61 8000 m 13:00 17:00 Lat: 46.11167 Lon: 13.00361 150 m
7 55.8 km B59 3000 m 13:00 17:00 Lat: 46.1825 Lon: 12.78667 260 m
8 ES 57.6 km A01 1000 m 13:00 17:00 Lat: 46.19639 Lon: 12.85611 230 m
9 58.2 km A01 400 m 13:00 17:00 Lat: 46.19639 Lon: 12.85611 230 m
StartGate(s): 13:00

# Id Name Nat Glider Sponsor SS ES Time km/h Distance Altitude Adj.
Distance
Dist.
Points
Lead.
Points
Time
Points
Arr.
Pos.
Points
Total
1 149 Peter Neuenschwander M SUI Aeros Combat www.fly-bumblebee.com 13:00:00 14:22:01 01:22:01 40.4 58.19 0 58.19 495.5 47.0 61.0 33.5 637
2 198 Christian Ciech M ITA Icaro Laminar AeCI - Icaro 2000 - Woody Valley 13:00:00 14:23:18 01:23:18 39.8 58.19 0 58.19 495.5 41.1 48.0 27.4 612
3 155 Alessandro Ploner M ITA Icaro Laminar adidas, Icaro, Woody valley , naviter 13:00:00 14:27:53 01:27:53 37.7 58.19 0 58.19 495.5 37.1 25.1 22.3 580
4 152 Filippo Oppici M ITA Wills Wing T2C AeCI 13:00:00 14:28:20 01:28:20 37.5 58.19 0 58.19 495.5 35.8 23.3 18.1 573
5 135 Matjaz Klemencic M SLO Moyes Litespeed Red Bull, Naviter, Gloryfy 13:00:00 14:28:29 01:28:29 37.5 58.19 0 58.19 495.5 36.5 22.7 14.7 569
6 127 Davide Guiducci M ITA Icaro Laminar Aec d'Italia Icaro 2000 Woody Walley 13:00:00 14:29:21 01:29:21 37.1 58.19 0 58.19 495.5 38.1 19.3 12.1 565
7 148 Anton Moroder M ITA Icaro Laminar Aecl pcs xenus 13:00:00 14:31:12 01:31:12 36.3 58.19 0 58.19 495.5 34.5 12.6 10.2 553
8 131 Andrew Hollidge M GBR Wills Wing T2C Bhpa 13:00:00 14:32:22 01:32:22 35.9 58.19 0 58.19 495.5 33.5 8.6 8.8 546
9 116 Arturo Dal Mas M ITA Wills Wing T2C 13:00:00 14:34:44 01:34:44 35.0 58.19 0 58.19 495.5 35.9 0.8 6.9 539
10 171 Suan Selenati M ITA Wills Wing T2C 13:00:00 14:33:55 01:33:55 35.3 58.19 0 58.19 495.5 31.1 3.4 7.8 538
11 162 Manuel Revelli M ITA Icaro Laminar Aeci 13:00:00 14:34:40 01:34:40 35.0 58.19 0 58.19 495.5 24.2 1.0 7.2 528
12 101 Vanni Accattoli M ITA Moyes Litespeed -aeci 13:00:00 56.79 +200 57.79 493.8 32.5 526
13 187 Roland Woehrle M GER Moyes Litespeed skyline sparkasse haslach/zell 13:00:00 55.80 +199 56.80 488.3 32.6 521
14 138 Marco Laurenzi M ITA Icaro Laminar AeCI, Flyve, Digifly, WoodyValley 13:00:00 53.01 +573 55.81 481.1 30.2 511
15 108 Darren Brown M GBR Wills Wing T2C 13:00:00 50.64 +975 55.51 478.0 23.8 502
15 109 Malcolm Brown M GBR Wills Wing T2C 13:00:00 52.06 +664 55.38 476.3 26.1 502
17 154 Daniele Piana M ITA Icaro Laminar Digifly 13:00:00 51.14 +1009 56.17 484.0 15.6 500
17 134 Francois Isoard M FRA Aeros Combat FFVL - DCA 13:00:00 51.14 +911 55.67 479.7 20.4 500
19 119 Joost Eertman M NED Icaro Laminar 13:00:00 47.87 +1095 53.33 448.6 22.5 471
20 189 Damien Zahn M SUI Moyes Litespeed Moyes, Skyline, Hymani.ch, Deltalab 13:00:00 48.07 +760 51.87 431.5 22.6 454
21 142 Konrad Lueders M GER Moyes Litespeed LSV Crawinkel 13:00:00 44.73 +305 46.23 399.1 14.3 413
22 102 Walter Bacchi M ITA Wills Wing T2C Aeroclub Vercelli 13:00:00 40.19 +932 44.46 389.1 13.2 402
23 177 Wayne Thompson M GBR Moyes Litespeed 13:00:00 38.19 +965 42.88 378.0 11.7 390
24 164 Gordon Rigg M GBR Moyes Litespeed 13:00:00 35.68 +1274 42.05 371.8 8.6 380
25 147 Paolo Montalbani M ITA Icaro Laminar - 13:00:00 40.57 +315 42.14 372.5 6.5 379
26 106 Anton Bondarenko M RUS Wills Wing T2C MTS 13:00:00 41.06 0 41.06 362.1 10.5 373
27 122 Jean louis Foglia M FRA Aeros Combat FFVL 13:00:00 34.90 +1206 40.88 360.2 10.8 371
28 165 Ubaldo Romano M SUI Aeros Combat Delta club Interlaken 13:00:00 35.69 +1058 40.91 360.5 9.9 370
29 136 Bostjan Klemencic M SLO Moyes Litespeed 13:00:00 35.17 +1063 40.42 354.2 11.5 366
30 172 Sasha Serebrennikova F RUS Moyes Litespeed Moyes 13:00:00 37.45 +351 39.20 337.1 5.1 342
31 145 Oleg Matvieiev M UKR Aeros Combat AltAir 13:00:00 33.03 +1051 38.29 324.7 3.4 328
32 186 Alain Woeffray M SUI Wills Wing T2C 13:00:00 33.05 +1007 38.09 322.2 4.3 327
33 121 Igriza Flora M ITA Icaro Laminar bottega d'arte orafa Flora e Comoretto 13:00:00 33.03 +1042 38.24 324.1 324
34 166 Simon Rousselet M FRA Wills Wings T2C Ellipse, Delta Club Annecy, FFVL 13:00:00 32.13 +1093 37.59 314.6 5.0 320
35 158 Christian Pollet M FRA Aeros Combat FFVL 13:00:00 36.01 0 36.01 290.7 25.3 316
36 185 Gary Wirdnam M GBR Icaro Laminar 13:00:00 31.38 +1144 37.08 307.1 7.6 315
37 153 Olav Opsanger M NOR Moyes Litespeed Moyes 13:00:00 34.99 +424 37.09 307.1 6.9 314
38 144 Eric Mathurin M FRA Moyes Litespeed FFVL 13:00:00 33.64 +598 36.61 300.3 8.7 309
39 188 Eric Wyss M FRA Icaro Laminar FFVL 13:00:00 31.83 +917 36.29 295.3 9.7 305
40 111 Julia Burlachenko F UKR Aeros Combat Altair 13:00:00 29.70 +1245 35.92 289.0 3.9 293
41 133 Sergei Iachmenko M RUS Aeros Combat нет 13:00:00 29.20 +1038 34.38 261.0 1.2 262
42 175 Walentin Teraud M RUS Moyes Litespeed 13:00:00 29.14 +974 33.97 254.8 4.8 260
43 174 Vladimir Sokolov M RUS Moyes Litespeed 13:00:00 28.47 +1100 33.97 254.8 255
44 123 Andrea Franchi M FRA Aeros Combat FFVL 13:00:00 32.74 0 32.74 236.4 8.1 245
45 167 Tanno Rutten M NED Wills Wing T2C 13:00:00 30.38 0 30.38 212.3 7.0 219
46 105 Valentino Bau M ITA Icaro Laminar AECI WOODYVALLEY 13:00:00 25.77 0 25.77 185.5 17.9 203
47 124 Tullio Gervasoni M ITA Wills Wing T2C AeCI/WILLS WING/WOODY VALLEY 13:00:00 25.67 0 25.67 184.9 17.3 202
48 103 Franz Herrmann M SUI Aeros Combat Herrmann Holzbau GmbH 13:00:00 25.18 0 25.18 180.8 16.7 198
48 170 Georg Schweier M GER Wills Wing T2C no set 13:00:00 25.23 0 25.23 181.3 16.9 198
50 184 Lukas Walcher M AUT Icaro Laminar HGC Frohnleiten 13:00:00 23.15 +540 25.85 185.9 186
51 163 Hilar Rieder M SUI Moyes Litespeed Pixon-ch.com 13:00:00 24.12 0 24.12 166.2 15.0 181
51 146 Michael Messing M AUT Icaro Laminar 13:00:00 19.71 +1437 25.24 181.4 181
53 161 Massimo Pugi M ITA Wills Wing T2C A.S.D. Prodelta - 13:00:00 19.24 +1288 25.06 179.4 179
54 150 Tommy Nilsson M SWE Moyes Litespeed 13:00:00 20.16 0 20.16 121.2 113
55 107 Benedikt Braun M SUI Aeros Combat SHV 13:00:00 12.55 0 12.55 78.7 79
56 176 Andrea Theodoli M ITA Icaro Laminar 13:00:00 9.19 +435 11.27 71.5 72
57 143 Serge Mainente M FRA Wills Wing T2C FFVL and MyWife 13:00:00 8.35 0 8.35 51.8 52
58 199 Guenther Pfanzelter M ITA Icaro Laminar xenus hotelsoftware 13:00:00 7.00 0 7.00 43.1 43
58 132 Harald Holmstrom M SWE Wills Wing T2 7.00 0 7.00 43.1 43
60 137 Chrigel Kuepfer M SUI Moyes Litespeed Blue Ox 13:00:00 19.33 0 19.33 116.6 3.7 0

Penalties

Note: % penalty is used to calc penalty as a % of total score. Both types can be combined. None affect the scoring of other pilots.
Id Name % penalty points penalty Reason
137 Chrigel Kuepfer 100% 0 Airspace Infringement: more than 30 m. inside
150 Tommy Nilsson 7.000000000000001% 0 Airspace Infringement: 25 m. out of the airspace

Pilots absent from task (ABS)

Id Name
104 Ulrich Schneider
110 Jurgen Buchert
114 Kajo Clauss
120 Roberto Ferigo
126 Primoz Gricar
173 Jaroslav Sojka
183 Joachim Waibel

Pilots not yet processed (NYP)

Id Name

Task statistics

param value
ss_distance 55.232
task_distance 58.188
launch_to_ess_distance 57.588
no_of_pilots_present 60
no_of_pilots_flying 60
no_of_pilots_lo 49
no_of_pilots_reaching_nom_dist 0
no_of_pilots_reaching_es 11
no_of_pilots_reaching_goal 11
sum_flown_distance 2230.398
best_dist 58.188
best_time 1.36694444444444
worst_time 1.57888888888889
no_of_pilots_in_competition 67
no_of_pilots_landed_before_stop 26
sum_dist_over_min 1963.043
sum_real_dist_over_min 1820.561
sum_flown_distances 2230.398
best_real_dist 58.188
last_start_time 2019-04-27T13:00:00+02:00
first_start_time 2019-04-27T13:00:00+02:00
first_finish_time 2019-04-27T14:22:01+02:00
max_time_to_get_time_points 2.53610843826415
no_of_pilots_with_time_points 11
goalratio 0.183333333333333
arrival_weight 0.0439114103009259
departure_weight 0
leading_weight 0.0614759744212963
time_weight 0.245903897685185
distance_weight 0.648708717592593
smallest_leading_coefficient 0.925452291571599
available_points_distance 495.499710573742
available_points_time 187.827459116229
available_points_departure 0
available_points_leading 46.9568647790574
available_points_arrival 33.5406176993267
time_validity 0.986243525624759
launch_validity 1
distance_validity 0.774478749236395
stop_validity 1
day_quality 0.763824652168356
ftv_day_validity 0.636997511192318
time_points_stop_correction 126.827140976038

Scoring formula settings

param value
id GAP2018
min_dist 7
nom_dist 70
nom_time 1.5
nom_launch 0.96
nom_goal 0.3
day_quality_override 0
bonus_gr 5
jump_the_gun_factor 2
jump_the_gun_max 300
normalize_1000_before_day_quality 0
time_points_if_not_in_goal 0.8
use_1000_points_for_max_day_quality 0
use_arrival_position_points 1
use_arrival_time_points 0
use_departure_points 0
use_difficulty_for_distance_points 1
use_distance_points 1
use_distance_squared_for_LC 1
use_leading_points 1
use_semi_circle_control_zone_for_goal_line 1
use_time_points 1
scoring_altitude QNH
final_glide_decelerator none
no_final_glide_decelerator_reason
min_time_span_for_valid_task 60
score_back_time 15
use_proportional_leading_weight_if_nobody_in_goal 0
leading_weight_factor 1
turnpoint_radius_tolerance 0.001
Report created: 2019-04-29T14:05:03+02:00

FS development, maintenance and support by